createdAt,value
2019-04-05T00:01:12.561Z,100806.84
2019-04-05T00:03:42.100Z,100811.22
2019-04-05T00:06:11.804Z,100804.20
2019-04-05T00:08:41.731Z,100804.20
2019-04-05T00:11:11.494Z,100778.42
2019-04-05T00:13:41.176Z,100820.00
2019-04-05T00:16:11.514Z,100816.51
2019-04-05T00:18:41.160Z,100814.29
2019-04-05T00:21:10.809Z,100811.20
2019-04-05T00:23:40.743Z,100812.12
2019-04-05T00:26:10.496Z,100816.51
2019-04-05T00:28:40.412Z,100820.05
2019-04-05T00:31:10.286Z,100821.78
2019-04-05T00:33:39.992Z,100834.94
2019-04-05T00:36:09.678Z,100834.94
2019-04-05T00:38:39.675Z,100828.80
2019-04-05T00:41:09.290Z,100833.16
2019-04-05T00:43:39.264Z,100836.70
2019-04-05T00:46:09.187Z,100838.42
2019-04-05T00:48:38.814Z,100835.83
2019-04-05T00:51:08.595Z,100835.85
2019-04-05T00:53:39.595Z,100835.00
2019-04-05T00:56:09.599Z,100838.95
2019-04-05T00:58:39.461Z,100834.13
2019-04-05T01:01:09.279Z,100842.89
2019-04-05T01:03:38.937Z,100842.89
2019-04-05T01:06:08.851Z,100839.81
2019-04-05T01:08:38.773Z,100844.23
2019-04-05T01:11:08.748Z,100841.16
2019-04-05T01:13:39.723Z,100845.52
2019-04-05T01:16:09.299Z,100842.89
2019-04-05T01:18:38.956Z,100848.59
2019-04-05T01:21:12.038Z,100845.12
2019-04-05T01:23:42.715Z,100849.06
2019-04-05T01:26:14.291Z,100846.87
2019-04-05T01:28:44.445Z,100843.80
2019-04-05T01:31:14.070Z,100847.32
2019-04-05T01:33:44.011Z,100846.86
2019-04-05T01:36:13.837Z,100847.30
2019-04-05T01:38:43.595Z,100846.42
2019-04-05T01:41:13.370Z,100846.41
2019-04-05T01:43:43.194Z,100854.27
2019-04-05T01:46:13.164Z,100854.27
2019-04-05T01:48:43.165Z,100857.80
2019-04-05T01:51:13.080Z,100856.48
2019-04-05T01:53:43.029Z,100860.87
2019-04-05T01:56:13.077Z,100858.67
2019-04-05T01:58:43.068Z,100858.67
2019-04-05T02:01:12.953Z,100857.36
2019-04-05T02:03:42.663Z,100870.94
2019-04-05T02:06:13.248Z,100869.63
2019-04-05T02:08:43.222Z,100864.36
2019-04-05T02:11:12.955Z,100860.42
2019-04-05T02:13:42.862Z,100858.67
2019-04-05T02:16:12.922Z,100861.30
2019-04-05T02:18:42.660Z,100868.73
2019-04-05T02:21:12.434Z,100865.69
2019-04-05T02:23:42.233Z,100864.37
2019-04-05T02:26:12.256Z,100865.69
2019-04-05T02:28:41.973Z,100872.25
2019-04-05T02:31:11.831Z,100877.05
2019-04-05T02:33:41.550Z,100868.73
2019-04-05T02:36:11.719Z,100875.73
2019-04-05T02:38:41.461Z,100889.31
2019-04-05T02:41:11.749Z,100889.31
2019-04-05T02:43:43.922Z,100885.83
2019-04-05T02:46:24.028Z,100698.81
2019-04-05T02:48:49.702Z,100885.83
2019-04-05T02:51:22.717Z,100885.38
2019-04-05T02:53:54.932Z,100889.33
2019-04-05T02:56:26.378Z,100885.83
2019-04-05T02:58:57.819Z,100885.38
2019-04-05T03:01:28.643Z,100885.82
2019-04-05T03:04:00.031Z,100895.02
2019-04-05T03:06:30.215Z,100891.92
2019-04-05T03:09:01.252Z,100902.45
2019-04-05T03:11:34.171Z,100884.92
2019-04-05T03:14:04.729Z,100898.06
2019-04-05T03:16:41.660Z,100897.20
2019-04-05T03:19:19.439Z,100898.94
2019-04-05T03:21:54.390Z,100896.30
2019-04-05T03:24:28.047Z,100896.27
2019-04-05T03:27:03.216Z,100897.16
2019-04-05T03:29:33.888Z,100894.95
2019-04-05T03:32:04.377Z,100895.80
2019-04-05T03:34:34.669Z,100895.80
2019-04-05T03:37:05.280Z,100904.95
2019-04-05T03:39:35.393Z,100904.97
2019-04-05T03:42:05.437Z,100912.83
2019-04-05T03:44:36.666Z,100911.07
2019-04-05T03:47:06.912Z,100916.32
2019-04-05T03:49:36.898Z,100911.05
2019-04-05T03:52:08.274Z,100914.52
2019-04-05T03:54:38.495Z,100920.22
2019-04-05T03:57:08.631Z,100919.34
2019-04-05T03:59:39.020Z,100926.75
2019-04-05T04:02:09.588Z,100926.72
2019-04-05T04:04:39.921Z,100930.19
2019-04-05T04:07:10.153Z,100928.37
2019-04-05T04:09:40.402Z,100928.37
2019-04-05T04:12:12.264Z,100936.25
2019-04-05T04:14:42.243Z,100939.73
2019-04-05T04:17:13.717Z,100935.34
2019-04-05T04:19:45.207Z,100942.36
2019-04-05T04:22:27.342Z,100939.31
2019-04-05T04:24:59.525Z,100933.61
2019-04-05T04:27:30.615Z,100939.28
2019-04-05T04:30:00.914Z,100939.28
2019-04-05T04:32:31.317Z,100937.06
2019-04-05T04:35:02.451Z,100938.73
2019-04-05T04:37:32.168Z,100940.05
2019-04-05T04:40:02.081Z,100929.50
2019-04-05T04:42:32.532Z,100941.30
2019-04-05T04:45:11.838Z,100941.28
2019-04-05T04:47:34.923Z,100943.81
2019-04-05T04:50:06.347Z,100947.28
2019-04-05T04:52:36.475Z,100949.05
2019-04-05T04:55:06.595Z,100946.43
2019-04-05T04:57:37.270Z,100946.46
2019-04-05T05:00:08.289Z,100951.25
2019-04-05T05:02:38.711Z,100958.28
2019-04-05T05:05:09.653Z,100954.35
2019-04-05T05:07:40.361Z,100954.35
2019-04-05T05:10:11.118Z,100960.81
2019-04-05T05:12:41.280Z,100960.81
2019-04-05T05:15:12.654Z,100959.88
2019-04-05T05:17:43.288Z,100962.88
2019-04-05T05:20:14.509Z,100964.19
2019-04-05T05:22:44.877Z,100955.77
2019-04-05T05:25:16.296Z,100962.73
2019-04-05T05:27:46.719Z,100967.98
2019-04-05T05:30:16.499Z,100967.98
2019-04-05T05:32:46.603Z,100974.99
2019-04-05T05:35:16.651Z,100982.01
2019-04-05T05:37:47.609Z,100981.08
2019-04-05T05:40:18.507Z,100981.08
2019-04-05T05:42:48.522Z,100986.40
2019-04-05T05:45:18.989Z,100982.86
2019-04-05T05:47:52.101Z,100977.58
2019-04-05T05:50:21.421Z,100980.20
2019-04-05T05:52:51.958Z,100975.73
2019-04-05T05:55:22.063Z,100974.53
2019-04-05T05:57:54.877Z,100974.53
2019-04-05T06:00:25.198Z,100987.25
2019-04-05T06:02:55.525Z,100983.73
2019-04-05T06:05:25.622Z,100982.08
2019-04-05T06:07:55.739Z,100986.44
2019-04-05T06:10:25.854Z,100988.56
2019-04-05T06:12:58.631Z,100989.94
2019-04-05T06:15:28.026Z,100999.47
2019-04-05T06:20:30.537Z,100992.10
2019-04-05T06:23:00.728Z,100996.53
2019-04-05T06:25:30.666Z,100988.27
2019-04-05T06:28:00.426Z,101004.03
2019-04-05T06:30:30.449Z,100997.09
2019-04-05T06:33:00.538Z,101006.80
2019-04-05T06:35:30.076Z,101009.94
2019-04-05T06:35:39.483Z,100988.63
2019-04-05T06:38:00.034Z,101014.42
2019-04-05T06:40:40.060Z,101013.99
2019-04-05T06:43:01.195Z,101017.89
2019-04-05T06:45:30.766Z,101014.48
2019-04-05T06:48:00.488Z,101018.47
2019-04-05T06:50:30.290Z,101017.19
2019-04-05T06:52:59.940Z,101017.19
2019-04-05T06:55:29.827Z,101019.50
2019-04-05T06:57:59.896Z,101022.61
2019-04-05T07:00:30.745Z,101022.61
2019-04-05T07:03:01.329Z,101027.47
2019-04-05T07:05:31.368Z,101024.08
2019-04-05T07:08:01.684Z,101024.08
2019-04-05T07:10:32.298Z,101028.94
2019-04-05T07:13:02.479Z,101031.99
2019-04-05T07:15:32.257Z,101028.49
2019-04-05T07:18:02.543Z,101037.27
2019-04-05T07:20:32.307Z,101036.45
2019-04-05T07:23:01.889Z,101036.45
2019-04-05T07:25:32.030Z,101036.94
2019-04-05T07:28:02.018Z,101036.94
2019-04-05T07:30:32.708Z,101038.27
2019-04-05T07:33:02.742Z,101038.33
2019-04-05T07:35:33.738Z,101038.34
2019-04-05T07:38:03.819Z,101038.34
2019-04-05T07:40:33.501Z,101054.14
2019-04-05T07:43:03.376Z,101057.64
2019-04-05T07:45:33.481Z,101055.47
2019-04-05T07:48:03.354Z,101065.11
2019-04-05T07:50:33.223Z,101056.79
2019-04-05T07:53:04.105Z,101056.79
2019-04-05T07:55:34.206Z,101062.95
2019-04-05T07:58:04.115Z,101059.89
2019-04-05T08:00:54.702Z,101059.89
2019-04-05T08:03:25.695Z,101068.64
2019-04-05T08:05:56.278Z,101068.64
2019-04-05T08:08:48.118Z,101062.06
2019-04-05T08:11:18.952Z,101069.51
2019-04-05T08:13:50.161Z,101071.70
2019-04-05T08:16:20.834Z,101067.72
2019-04-05T08:18:57.529Z,101071.22
2019-04-05T08:21:23.195Z,101074.69
2019-04-05T08:23:53.155Z,101076.00
2019-04-05T08:26:22.941Z,101073.34
2019-04-05T08:28:53.253Z,101072.83
2019-04-05T08:31:23.137Z,101078.96
2019-04-05T08:33:53.437Z,101077.57
2019-04-05T08:36:23.702Z,101073.56
2019-04-05T08:38:53.727Z,101070.47
2019-04-05T08:41:23.542Z,101071.64
2019-04-05T08:43:53.506Z,101066.48
2019-04-05T08:46:23.387Z,101066.23
2019-04-05T08:48:53.565Z,101076.41
2019-04-05T08:51:23.718Z,101065.41
2019-04-05T08:53:53.639Z,101063.69
2019-04-05T08:56:23.331Z,101061.42
2019-04-05T08:58:53.612Z,101063.54
2019-04-05T09:01:23.467Z,101059.52
2019-04-05T09:03:53.478Z,101062.13
2019-04-05T09:06:23.766Z,101058.56
2019-04-05T09:08:53.943Z,101065.58
2019-04-05T09:11:23.675Z,101058.47
2019-04-05T09:13:53.680Z,101056.64
2019-04-05T09:16:23.326Z,101062.78
2019-04-05T09:18:53.394Z,101065.38
2019-04-05T09:21:23.265Z,101063.09
2019-04-05T09:23:53.232Z,101062.56
2019-04-05T09:26:23.295Z,101058.84
2019-04-05T09:28:53.100Z,101056.91
2019-04-05T09:31:22.896Z,101050.11
2019-04-05T09:33:52.976Z,101050.77
2019-04-05T09:36:22.920Z,101042.55
2019-04-05T09:38:52.871Z,101043.50
2019-04-05T09:41:22.574Z,101035.74
2019-04-05T09:43:52.244Z,101024.70
2019-04-05T09:46:21.816Z,101030.95
2019-04-05T09:48:51.631Z,101026.61
2019-04-05T09:51:21.899Z,101028.64
2019-04-05T09:53:51.727Z,101025.55
2019-04-05T09:56:21.722Z,101024.45
2019-04-05T09:58:51.433Z,101029.56
2019-04-05T10:01:21.441Z,101028.56
2019-04-05T10:03:51.407Z,101031.98
2019-04-05T10:06:21.570Z,101026.10
2019-04-05T10:08:51.124Z,101021.80
2019-04-05T10:11:21.021Z,101025.53
2019-04-05T10:13:51.078Z,101028.14
2019-04-05T10:16:22.124Z,101028.88
2019-04-05T10:18:52.082Z,101026.36
2019-04-05T10:21:21.993Z,101029.27
2019-04-05T10:23:51.655Z,101029.45
2019-04-05T10:26:21.251Z,101030.52
2019-04-05T10:28:51.247Z,101026.91
2019-04-05T10:31:20.807Z,101033.30
2019-04-05T10:33:50.493Z,101028.55
2019-04-05T10:36:20.629Z,101030.02
2019-04-05T10:38:50.589Z,101034.16
2019-04-05T10:41:22.926Z,101040.80
2019-04-05T10:43:51.809Z,101029.94
2019-04-05T10:46:21.505Z,101034.00
2019-04-05T10:48:51.265Z,101032.92
2019-04-05T10:51:21.343Z,101041.80
2019-04-05T10:53:51.291Z,101048.25
2019-04-05T10:56:21.282Z,101036.66
2019-04-05T10:58:51.121Z,101037.97
2019-04-05T11:01:20.805Z,101036.20
2019-04-05T11:03:50.945Z,101037.28
2019-04-05T11:06:20.890Z,101032.11
2019-04-05T11:08:50.969Z,101029.99
2019-04-05T11:11:20.998Z,101031.31
2019-04-05T11:13:50.841Z,101025.86
2019-04-05T11:16:20.616Z,101025.14
2019-04-05T11:18:50.227Z,101024.59
2019-04-05T11:21:20.070Z,101029.11
2019-04-05T11:23:49.687Z,100887.97
2019-04-05T11:26:19.948Z,101039.47
2019-04-05T11:28:49.905Z,101035.88
2019-04-05T11:31:19.534Z,101036.96
2019-04-05T11:33:49.331Z,101041.27
2019-04-05T11:36:20.299Z,101042.12
2019-04-05T11:38:51.029Z,101035.48
2019-04-05T11:41:22.972Z,101029.59
2019-04-05T11:43:55.454Z,101040.30
2019-04-05T11:46:26.237Z,101032.83
2019-04-05T11:48:57.124Z,101042.38
2019-04-05T11:51:27.429Z,101043.20
2019-04-05T11:53:57.415Z,101037.94
2019-04-05T11:56:27.627Z,101034.72
2019-04-05T11:58:57.705Z,101040.36
2019-04-05T12:01:32.869Z,101033.98
2019-04-05T12:04:02.741Z,101037.74
2019-04-05T12:06:35.054Z,101032.34
2019-04-05T12:09:06.906Z,101033.83
2019-04-05T12:11:37.285Z,101027.06
2019-04-05T12:14:06.891Z,101026.81
2019-04-05T12:16:36.751Z,101017.13
2019-04-05T12:19:06.747Z,101026.02
2019-04-05T12:21:36.344Z,101014.53
2019-04-05T12:24:06.185Z,101018.83
2019-04-05T12:26:36.199Z,101023.58
2019-04-05T12:29:06.007Z,101022.45
2019-04-05T12:31:35.875Z,101026.87
2019-04-05T12:34:05.498Z,101021.94
2019-04-05T12:36:35.320Z,101026.50
2019-04-05T12:39:08.239Z,101020.97
2019-04-05T12:41:40.986Z,101024.42
2019-04-05T12:44:14.310Z,101026.98
2019-04-05T12:46:43.473Z,101016.67
2019-04-05T12:49:15.317Z,101031.23
2019-04-05T12:51:45.591Z,101026.63
2019-04-05T12:54:16.224Z,101029.69
2019-04-05T12:56:46.048Z,101026.52
2019-04-05T12:59:15.810Z,101026.04
2019-04-05T13:01:46.564Z,101025.91
2019-04-05T13:04:16.531Z,101026.80
2019-04-05T13:06:46.486Z,101026.70
2019-04-05T13:09:17.038Z,101025.44
2019-04-05T13:11:46.996Z,101015.99
2019-04-05T13:14:16.714Z,101013.33
2019-04-05T13:16:49.423Z,101018.05
2019-04-05T13:19:18.363Z,101018.05
2019-04-05T13:21:48.204Z,101015.91
2019-04-05T13:24:17.916Z,101014.88
2019-04-05T13:26:48.078Z,101021.05
2019-04-05T13:29:19.659Z,101020.11
2019-04-05T13:31:49.477Z,101025.53
2019-04-05T13:34:19.640Z,101016.69
2019-04-05T13:36:49.344Z,101020.32
2019-04-05T13:39:19.154Z,101018.05
2019-04-05T13:41:49.368Z,101016.33
2019-04-05T13:44:19.133Z,101011.81
2019-04-05T13:46:48.708Z,101008.73
2019-04-05T13:49:18.707Z,101014.88
2019-04-05T13:51:48.354Z,101019.72
2019-04-05T13:54:18.007Z,101005.06
2019-04-05T13:56:47.987Z,101009.76
2019-04-05T13:59:17.845Z,101014.27
2019-04-05T14:01:50.920Z,101008.94
2019-04-05T14:04:20.999Z,101002.41
2019-04-05T14:06:53.397Z,101011.23
2019-04-05T14:09:22.829Z,101008.58
2019-04-05T14:11:52.873Z,101008.36
2019-04-05T14:14:22.520Z,101008.60
2019-04-05T14:16:54.191Z,101005.53
2019-04-05T14:19:23.953Z,101011.48
2019-04-05T14:21:53.847Z,101012.80
2019-04-05T14:24:24.318Z,101006.59
2019-04-05T14:26:54.458Z,101014.45
2019-04-05T14:29:24.477Z,101017.89
2019-04-05T14:31:54.345Z,101014.30
2019-04-05T14:34:24.886Z,101020.63
2019-04-05T14:36:54.468Z,101019.87
2019-04-05T14:39:24.746Z,101022.63
2019-04-05T14:41:55.016Z,101021.39
2019-04-05T14:44:24.872Z,101020.98
2019-04-05T14:46:55.860Z,101021.14
2019-04-05T14:49:30.303Z,101024.92
2019-04-05T14:52:00.737Z,101023.67
2019-04-05T14:54:30.853Z,101023.85
2019-04-05T14:57:05.446Z,101017.53
2019-04-05T14:59:32.885Z,101018.05
2019-04-05T15:02:02.671Z,101023.37
2019-04-05T15:04:32.342Z,101024.45
2019-04-05T15:07:02.108Z,101019.25
2019-04-05T15:09:31.883Z,101026.50
2019-04-05T15:12:01.904Z,101024.31
2019-04-05T15:14:31.749Z,101018.69
2019-04-05T15:17:01.625Z,101022.31
2019-04-05T15:19:31.411Z,101025.03
2019-04-05T15:22:05.984Z,101022.37
2019-04-05T15:24:32.812Z,101023.28
2019-04-05T15:27:02.962Z,101021.06
2019-04-05T15:29:32.592Z,101017.55
2019-04-05T15:32:02.885Z,101016.63
2019-04-05T15:34:33.018Z,101020.53
2019-04-05T15:37:02.699Z,101024.07
2019-04-05T15:39:32.379Z,101025.99
2019-04-05T15:42:02.675Z,101020.70
2019-04-05T15:44:32.975Z,101023.47
2019-04-05T15:47:02.622Z,101022.97
2019-04-05T15:49:32.490Z,101020.81
2019-04-05T15:52:02.227Z,101027.47
2019-04-05T15:54:33.350Z,101024.30
2019-04-05T15:57:04.431Z,101030.37
2019-04-05T15:59:34.177Z,101028.20
2019-04-05T16:02:04.430Z,101019.48
2019-04-05T16:04:34.798Z,101021.72
2019-04-05T16:07:04.792Z,101030.30
2019-04-05T16:09:34.539Z,101029.05
2019-04-05T16:12:05.172Z,101029.92
2019-04-05T16:14:34.864Z,101030.89
2019-04-05T16:17:04.695Z,101033.69
2019-04-05T16:19:36.049Z,101041.70
2019-04-05T16:22:05.808Z,101040.48
2019-04-05T16:24:35.779Z,101047.02
2019-04-05T16:27:05.938Z,101002.28
2019-04-05T16:29:35.635Z,101042.62
2019-04-05T16:32:06.862Z,101043.03
2019-04-05T16:34:37.010Z,101044.47
2019-04-05T16:37:07.193Z,101044.61
2019-04-05T16:39:36.888Z,101056.36
2019-04-05T16:42:10.102Z,101048.45
2019-04-05T16:44:38.591Z,101053.38
2019-04-05T16:47:08.733Z,101059.25
2019-04-05T16:49:38.543Z,101061.48
2019-04-05T16:52:08.059Z,101054.91
2019-04-05T16:54:38.101Z,101061.88
2019-04-05T16:57:08.124Z,101055.23
2019-04-05T16:59:37.910Z,101062.40
2019-04-05T17:02:08.223Z,100955.52
2019-04-05T17:04:37.952Z,101055.45
2019-04-05T17:07:07.734Z,101058.73
2019-04-05T17:09:37.757Z,101056.58
2019-04-05T17:12:07.706Z,101070.84
2019-04-05T17:14:37.511Z,101061.14
2019-04-05T17:17:07.406Z,101059.45
2019-04-05T17:19:37.495Z,101060.39
2019-04-05T17:22:07.210Z,101057.87
2019-04-05T17:24:36.769Z,101055.38
2019-04-05T17:27:06.774Z,101054.63
2019-04-05T17:29:36.417Z,101062.59
2019-04-05T17:32:06.346Z,101060.08
2019-04-05T17:34:37.369Z,101064.63
2019-04-05T17:37:07.450Z,101074.49
2019-04-05T17:39:37.492Z,101074.92
2019-04-05T17:42:07.746Z,101071.50
2019-04-05T17:44:37.951Z,101078.70
2019-04-05T17:47:07.672Z,101068.21
2019-04-05T17:49:37.684Z,101073.14
2019-04-05T17:52:07.722Z,101077.17
2019-04-05T17:54:37.478Z,101078.61
2019-04-05T17:57:07.597Z,101085.30
2019-04-05T17:59:38.594Z,101092.05
2019-04-05T18:02:08.625Z,101096.13
2019-04-05T18:04:39.251Z,101097.51
2019-04-05T18:07:09.495Z,101099.78
2019-04-05T18:09:39.143Z,101100.73
2019-04-05T18:12:09.061Z,101099.95
2019-04-05T18:14:39.136Z,101097.84
2019-04-05T18:17:08.741Z,101108.55
2019-04-05T18:19:38.657Z,101107.28
2019-04-05T18:22:08.714Z,101111.33
2019-04-05T18:24:38.472Z,101114.96
2019-04-05T18:27:08.336Z,101120.27
2019-04-05T18:29:38.299Z,101119.05
2019-04-05T18:32:08.169Z,101120.44
2019-04-05T18:34:37.726Z,101124.01
2019-04-05T18:37:07.638Z,101127.55
2019-04-05T18:39:37.481Z,101133.75
2019-04-05T18:42:07.333Z,101135.56
2019-04-05T18:44:37.385Z,101139.15
2019-04-05T18:47:15.550Z,101140.04
2019-04-05T18:49:45.755Z,101146.32
2019-04-05T18:52:15.473Z,101141.85
2019-04-05T18:54:45.279Z,101148.05
2019-04-05T18:57:15.499Z,101149.02
2019-04-05T18:59:45.353Z,101149.61
2019-04-05T19:02:14.923Z,101153.77
2019-04-05T19:04:44.839Z,101148.03
2019-04-05T19:07:14.539Z,101154.40
2019-04-05T19:09:44.561Z,101156.73
2019-04-05T19:12:15.035Z,101162.52
2019-04-05T19:14:44.916Z,101166.59
2019-04-05T19:17:23.758Z,101162.62
2019-04-05T19:19:46.670Z,101164.34
2019-04-05T19:22:16.231Z,101172.95
2019-04-05T19:24:45.882Z,101171.27
2019-04-05T19:27:15.646Z,101170.02
2019-04-05T19:29:45.439Z,101172.27
2019-04-05T19:49:57.380Z,101192.19
2019-04-05T19:52:29.982Z,101186.56
2019-04-05T19:55:00.278Z,101198.98
2019-04-05T19:57:32.352Z,101197.70
2019-04-05T20:00:02.549Z,101197.86
2019-04-05T20:02:32.359Z,101197.83
2019-04-05T20:05:02.382Z,101198.78
2019-04-05T20:07:32.576Z,101201.97
2019-04-05T20:10:02.485Z,101176.16
2019-04-05T20:12:32.124Z,101042.16
2019-04-05T20:15:02.160Z,101211.67
2019-04-05T20:17:34.041Z,101207.70
2019-04-05T20:20:04.922Z,101214.03
2019-04-05T20:22:35.127Z,101216.26
2019-04-05T20:25:05.789Z,101220.26
2019-04-05T20:27:35.778Z,101214.23
2019-04-05T20:30:07.009Z,101223.16
2019-04-05T20:32:37.185Z,101217.06
2019-04-05T20:35:07.337Z,101226.73
2019-04-05T20:37:36.885Z,101225.93
2019-04-05T20:40:07.830Z,101231.27
2019-04-05T20:42:37.762Z,101235.70
2019-04-05T20:45:08.015Z,101235.33
2019-04-05T20:47:38.226Z,101234.88
2019-04-05T20:50:08.731Z,101233.64
2019-04-05T20:52:38.390Z,101244.27
2019-04-05T20:55:08.975Z,101238.67
2019-04-05T20:57:38.710Z,101244.84
2019-04-05T21:00:10.547Z,101247.02
2019-04-05T21:02:40.459Z,101258.12
2019-04-05T21:05:10.315Z,101251.08
2019-04-05T21:07:40.361Z,101256.45
2019-04-05T21:10:10.469Z,101255.58
2019-04-05T21:12:40.276Z,101248.50
2019-04-05T21:15:10.633Z,101251.19
2019-04-05T21:17:40.384Z,101254.28
2019-04-05T21:20:10.593Z,101254.75
2019-04-05T21:22:40.486Z,101252.17
2019-04-05T21:25:10.451Z,101074.95
2019-04-05T21:27:39.956Z,101060.05
2019-04-05T21:30:09.989Z,101247.77
2019-04-05T21:32:40.041Z,101256.16
2019-04-05T21:35:10.034Z,101254.04
2019-04-05T21:37:39.688Z,101257.13
2019-04-05T21:40:09.958Z,101265.53
2019-04-05T21:42:39.754Z,101262.46
2019-04-05T21:45:09.641Z,101265.08
2019-04-05T21:47:39.752Z,101262.47
2019-04-05T21:50:11.084Z,101273.89
2019-04-05T21:52:41.010Z,101269.02
2019-04-05T21:55:11.081Z,101280.48
2019-04-05T21:57:41.025Z,101272.58
2019-04-05T22:00:17.653Z,101280.92
2019-04-05T22:02:47.427Z,101278.30
2019-04-05T22:05:17.579Z,101279.62
2019-04-05T22:07:47.666Z,101284.45
2019-04-05T22:10:17.492Z,101283.16
2019-04-05T22:12:47.328Z,101110.29
2019-04-05T22:15:17.296Z,101285.87
2019-04-05T22:17:46.892Z,101290.73
2019-04-05T22:20:16.690Z,101287.64
2019-04-05T22:22:46.810Z,101285.84
2019-04-05T22:25:16.498Z,101284.55
2019-04-05T22:27:46.193Z,101288.53
2019-04-05T22:30:16.077Z,101288.09
2019-04-05T22:32:45.966Z,101291.15
2019-04-05T22:35:15.982Z,101293.78
2019-04-05T22:37:45.732Z,101286.77
2019-04-05T22:40:15.902Z,101284.12
2019-04-05T22:42:45.932Z,101292.94
2019-04-05T22:45:15.764Z,101287.67
2019-04-05T22:47:45.264Z,101288.55
2019-04-05T22:50:15.460Z,101280.63
2019-04-05T22:52:45.176Z,101290.33
2019-04-05T22:55:14.764Z,101285.94
2019-04-05T22:57:44.789Z,101286.38
2019-04-05T23:00:15.890Z,101293.42
2019-04-05T23:02:45.860Z,101281.55
2019-04-05T23:05:15.581Z,101291.20
2019-04-05T23:07:45.221Z,101288.59
2019-04-05T23:10:16.601Z,101292.13
2019-04-05T23:12:46.179Z,101287.27
2019-04-05T23:15:16.014Z,101286.84
2019-04-05T23:17:45.843Z,101283.32
2019-04-05T23:20:15.714Z,101288.59
2019-04-05T23:22:45.617Z,101292.98
2019-04-05T23:25:21.851Z,101289.47
2019-04-05T23:27:47.188Z,101284.20
2019-04-05T23:30:18.452Z,101287.71
2019-04-05T23:32:48.184Z,101285.10
2019-04-05T23:35:17.787Z,101282.89
2019-04-05T23:37:48.146Z,101275.88
2019-04-05T23:40:17.727Z,101281.56
2019-04-05T23:42:47.526Z,101281.16
2019-04-05T23:45:17.509Z,101278.08
2019-04-05T23:47:47.201Z,101286.42
2019-04-05T23:50:17.087Z,101280.70
2019-04-05T23:52:47.076Z,101284.20
2019-04-05T23:55:17.141Z,101275.39
2019-04-05T23:57:47.084Z,101276.26
